Time;durP1;ratioP1;P1;durP2;ratioP2;P2;SDS_P1;SDS_P2;PMS_P1;PMS_P2;Temp;Humidity;BMP_temperature;BMP_pressure;BME280_temperature;BME280_humidity;BME280_pressure;Samples;Min_cycle;Max_cycle;Signal;HPM_P1;HPM_P2
2022/11/24 00:09:37;;;;;;;10.73;2.63;;;8.80;99.90;;;;;;20845753;28;20212;-68
2022/11/24 00:19:39;;;;;;;8.90;2.30;;;8.90;99.90;;;;;;20913933;28;20727;-76
2022/11/24 00:29:40;;;;;;;9.67;2.37;;;8.90;99.90;;;;;;20914973;28;20628;-74
2022/11/24 00:39:42;;;;;;;6.63;2.30;;;8.90;99.90;;;;;;20935614;28;20231;-80
2022/11/24 00:49:44;;;;;;;10.27;2.50;;;8.90;99.90;;;;;;20913998;28;20722;-77
2022/11/24 00:59:45;;;;;;;8.93;2.60;;;8.90;99.90;;;;;;20912981;28;20235;-80
2022/11/24 01:09:47;;;;;;;13.90;2.87;;;8.80;99.90;;;;;;20911886;28;20258;-79
2022/11/24 01:19:50;;;;;;;11.00;2.63;;;8.80;99.90;;;;;;20911520;28;20232;-80
2022/11/24 01:29:51;;;;;;;13.63;3.30;;;8.80;99.90;;;;;;20911619;28;20281;-79
2022/11/24 01:39:53;;;;;;;14.07;2.80;;;8.80;99.90;;;;;;20923882;28;20283;-81
2022/11/24 01:49:58;;;;;;;13.67;2.67;;;8.70;99.90;;;;;;20925860;28;20247;-79
2022/11/24 02:00:05;;;;;;;13.47;2.90;;;8.70;99.90;;;;;;20925751;28;20234;-75
2022/11/24 02:10:11;;;;;;;14.83;2.80;;;8.70;99.90;;;;;;20924683;28;20237;-81
2022/11/24 02:20:14;;;;;;;17.30;2.70;;;8.90;99.90;;;;;;20923769;28;20605;-79
2022/11/24 02:30:16;;;;;;;8.23;2.60;;;8.90;99.90;;;;;;20926290;28;20258;-79
2022/11/24 02:40:23;;;;;;;11.37;3.00;;;9.00;99.90;;;;;;20922547;28;20216;-81
2022/11/24 02:50:25;;;;;;;13.90;3.10;;;9.20;99.90;;;;;;20921146;28;20237;-75
2022/11/24 03:00:27;;;;;;;10.33;2.93;;;9.20;99.90;;;;;;20921202;28;20269;-80
2022/11/24 03:10:29;;;;;;;11.77;2.77;;;9.30;99.90;;;;;;20919860;28;20201;-72
2022/11/24 03:20:31;;;;;;;10.03;2.80;;;;;;;;;;20919255;28;20213;-75
2022/11/24 03:30:32;;;;;;;9.23;3.00;;;9.30;99.90;;;;;;20919028;28;20264;-78
2022/11/24 03:40:34;;;;;;;17.87;3.37;;;9.30;99.90;;;;;;20917701;28;20267;-71
2022/11/24 03:50:36;;;;;;;8.10;2.60;;;9.30;99.90;;;;;;20916503;28;20603;-76
2022/11/24 04:00:38;;;;;;;13.63;2.90;;;9.30;99.90;;;;;;20915777;28;20258;-70
2022/11/24 04:10:40;;;;;;;18.67;3.00;;;9.30;99.90;;;;;;20915461;28;20273;-82
2022/11/24 04:20:42;;;;;;;13.37;2.90;;;9.30;99.90;;;;;;20914978;28;20258;-82
2022/11/24 04:30:44;;;;;;;11.47;3.57;;;9.20;99.90;;;;;;20915214;28;20228;-83
2022/11/24 04:40:45;;;;;;;14.57;3.40;;;9.20;99.90;;;;;;20915436;28;20208;-84
2022/11/24 04:50:47;;;;;;;12.17;3.13;;;9.20;99.90;;;;;;20916545;28;20238;-85
2022/11/24 05:08:55;;;;;;;12.77;2.60;;;9.20;99.90;;;;;;20994897;28;21191;-86
2022/11/24 05:18:57;;;;;;;9.90;3.07;;;9.20;99.90;;;;;;20994644;28;20609;-83
2022/11/24 05:28:58;;;;;;;17.43;3.70;;;9.30;99.90;;;;;;20983895;28;20203;-77
2022/11/24 05:39:00;;;;;;;11.80;3.63;;;9.30;99.90;;;;;;20982174;28;20211;-78
2022/11/24 05:49:02;;;;;;;20.97;4.57;;;9.30;99.90;;;;;;20980862;28;20215;-78
2022/11/24 05:59:03;;;;;;;14.80;3.03;;;9.50;99.90;;;;;;20979877;28;20205;-77
2022/11/24 06:09:10;;;;;;;14.30;3.57;;;9.40;99.90;;;;;;20978466;28;20217;-84
2022/11/24 06:19:12;;;;;;;13.10;3.47;;;9.40;99.90;;;;;;20928736;28;20213;-78
2022/11/24 06:29:14;;;;;;;13.77;3.60;;;9.40;99.90;;;;;;20922105;28;20213;-71
2022/11/24 06:39:15;;;;;;;19.13;4.13;;;9.50;99.90;;;;;;20918662;28;20564;-77
2022/11/24 06:49:17;;;;;;;15.53;3.90;;;9.50;99.90;;;;;;20918299;28;20209;-80
2022/11/24 06:59:20;;;;;;;17.27;3.60;;;9.40;99.90;;;;;;20919224;28;20586;-74
2022/11/24 07:09:21;;;;;;;21.63;3.67;;;9.40;99.90;;;;;;20915115;28;20270;-73
2022/11/24 07:19:23;;;;;;;18.43;3.30;;;9.50;99.90;;;;;;20917443;28;20219;-77
2022/11/24 07:29:25;;;;;;;16.10;4.47;;;9.50;99.90;;;;;;20916271;28;20643;-72
2022/11/24 07:39:27;;;;;;;16.50;3.40;;;9.50;99.90;;;;;;20916361;28;20689;-77
2022/11/24 07:49:29;;;;;;;12.23;3.27;;;9.60;99.90;;;;;;20915707;28;20210;-76
2022/11/24 08:08:01;;;;;;;15.43;3.93;;;9.80;99.90;;;;;;21066360;28;20557;-76
2022/11/24 08:18:03;;;;;;;17.37;3.60;;;9.80;99.90;;;;;;21066230;28;20260;-73
2022/11/24 08:28:05;;;;;;;22.07;4.10;;;9.90;99.90;;;;;;21066070;28;20213;-69
2022/11/24 08:38:06;;;;;;;19.50;3.60;;;9.90;99.90;;;;;;21064641;28;20213;-72
2022/11/24 08:55:08;;;;;;;21.77;4.87;;;10.00;99.90;;;;;;21151772;27;20525;-70
2022/11/24 09:05:10;;;;;;;11.30;3.00;;;10.10;99.90;;;;;;21152485;28;20210;-77
2022/11/24 09:15:34;;;;;;;11.03;3.23;;;10.20;99.90;;;;;;21150956;28;20239;-78
2022/11/24 09:25:36;;;;;;;6.40;2.27;;;10.30;99.90;;;;;;21148190;28;20228;-80
2022/11/24 09:35:38;;;;;;;8.83;2.60;;;10.40;99.90;;;;;;21147868;28;20211;-77
2022/11/24 09:46:02;;;;;;;7.30;2.20;;;10.70;99.90;;;;;;21128602;28;20593;-73
2022/11/24 09:56:21;;;;;;;6.20;2.00;;;10.70;99.90;;;;;;21146248;28;20300;-79
2022/11/24 10:06:50;;;;;;;6.30;2.30;;;10.70;99.90;;;;;;21088623;28;20234;-77
2022/11/24 10:17:04;;;;;;;6.97;2.33;;;10.90;99.90;;;;;;21036717;28;20214;-74
2022/11/24 10:27:17;;;;;;;4.50;2.20;;;10.90;99.90;;;;;;21087776;28;20295;-79
2022/11/24 10:37:32;;;;;;;5.47;2.40;;;11.00;99.90;;;;;;21087986;28;20569;-76
2022/11/24 10:47:34;;;;;;;6.03;1.93;;;11.20;99.90;;;;;;21067451;28;20705;-76
2022/11/24 10:57:38;;;;;;;7.33;2.03;;;11.20;99.90;;;;;;21085462;28;20688;-75
2022/11/24 11:07:40;;;;;;;12.03;2.53;;;11.40;99.90;;;;;;21083953;28;20287;-74
2022/11/24 11:17:43;;;;;;;6.20;1.90;;;11.40;99.90;;;;;;21063539;28;20290;-76
2022/11/24 11:27:45;;;;;;;6.67;2.40;;;11.60;99.90;;;;;;21082746;28;20234;-77
2022/11/24 11:37:48;;;;;;;5.17;2.03;;;11.50;99.40;;;;;;21082112;28;20329;-78
2022/11/24 11:47:56;;;;;;;10.20;3.17;;;11.50;99.60;;;;;;21077797;28;20248;-78
2022/11/24 11:58:14;;;;;;;8.63;2.50;;;11.40;98.60;;;;;;21079473;28;20206;-77
2022/11/24 12:08:48;;;;;;;9.23;2.33;;;11.50;97.80;;;;;;21079118;28;20771;-78
2022/11/24 12:19:48;;;;;;;9.00;2.10;;;11.60;96.90;;;;;;21078749;28;20309;-75
2022/11/24 12:30:11;;;;;;;10.67;4.93;;;11.50;96.20;;;;;;21078205;28;20306;-75
2022/11/24 12:40:37;;;;;;;8.53;2.60;;;11.40;96.10;;;;;;21077457;28;20636;-74
2022/11/24 12:50:46;;;;;;;9.03;2.10;;;11.40;96.10;;;;;;21030734;28;20245;-79
2022/11/24 13:00:57;;;;;;;6.73;2.00;;;11.40;96.20;;;;;;21075795;28;20206;-82
2022/11/24 13:11:21;;;;;;;7.27;2.10;;;11.30;95.80;;;;;;21075882;28;20233;-81
2022/11/24 13:21:34;;;;;;;7.40;1.77;;;11.30;96.10;;;;;;21076218;28;20208;-71
2022/11/24 13:31:36;;;;;;;9.53;2.23;;;11.30;95.90;;;;;;21057599;28;20237;-69
2022/11/24 13:41:41;;;;;;;7.30;2.07;;;11.30;96.10;;;;;;21090669;28;20210;-72
2022/11/24 13:51:43;;;;;;;8.03;2.30;;;;;;;;;;21090683;28;20247;-72
2022/11/24 14:01:55;;;;;;;13.47;2.00;;;11.40;95.60;;;;;;21088985;28;20209;-74
2022/11/24 14:12:19;;;;;;;7.37;2.63;;;11.40;95.80;;;;;;21085885;28;20244;-73
2022/11/24 14:22:39;;;;;;;11.70;2.33;;;11.30;95.60;;;;;;21087026;28;20252;-75
2022/11/24 14:32:56;;;;;;;9.47;2.60;;;11.40;95.90;;;;;;21087419;28;20236;-74
2022/11/24 14:42:58;;;;;;;7.13;2.47;;;11.40;95.60;;;;;;21086613;28;20210;-71
2022/11/24 14:52:59;;;;;;;7.77;2.53;;;11.30;95.60;;;;;;21084974;28;20304;-72
2022/11/24 15:03:01;;;;;;;8.47;3.10;;;11.30;96.00;;;;;;21084219;28;20202;-70
2022/11/24 15:13:19;;;;;;;7.77;2.97;;;11.20;95.90;;;;;;21083764;28;20232;-72
2022/11/24 15:23:24;;;;;;;10.73;3.03;;;11.10;96.00;;;;;;21082134;28;20569;-72
2022/11/24 15:33:26;;;;;;;10.43;3.40;;;10.90;96.30;;;;;;21083367;28;20241;-73
2022/11/24 15:43:39;;;;;;;10.67;3.60;;;10.90;96.60;;;;;;21082174;28;20202;-73
2022/11/24 15:53:55;;;;;;;13.27;4.93;;;10.80;96.90;;;;;;21080958;28;20283;-71
2022/11/24 16:04:02;;;;;;;9.53;3.50;;;10.80;96.90;;;;;;21080159;28;20713;-70
2022/11/24 16:14:03;;;;;;;8.03;2.87;;;10.70;96.80;;;;;;21080158;28;20639;-72
2022/11/24 16:24:06;;;;;;;10.73;4.90;;;10.70;97.10;;;;;;21079310;28;20267;-71
2022/11/24 16:34:08;;;;;;;9.73;3.80;;;;;;;;;;21078735;28;20244;-72
2022/11/24 16:44:10;;;;;;;12.13;4.00;;;10.30;97.10;;;;;;21078404;28;20214;-71
2022/11/24 16:54:12;;;;;;;8.40;3.30;;;10.20;97.30;;;;;;21077149;28;20700;-70
2022/11/24 17:04:14;;;;;;;10.83;4.20;;;10.20;97.40;;;;;;21077377;28;20575;-72
2022/11/24 17:14:15;;;;;;;15.77;4.97;;;10.10;97.70;;;;;;21089686;28;20245;-73
2022/11/24 17:24:17;;;;;;;11.60;4.57;;;9.90;98.20;;;;;;21093709;28;20208;-73
2022/11/24 17:34:19;;;;;;;13.23;4.67;;;9.60;98.60;;;;;;21078869;28;20271;-72
2022/11/24 17:44:21;;;;;;;13.80;5.00;;;9.60;98.60;;;;;;21021501;28;20203;-72
2022/11/24 17:54:22;;;;;;;19.17;8.43;;;9.30;99.00;;;;;;21005087;28;20887;-69
2022/11/24 18:04:44;;;;;;;20.90;7.87;;;9.00;99.20;;;;;;21008823;28;20631;-70
2022/11/24 18:14:46;;;;;;;23.27;8.73;;;8.80;99.50;;;;;;21007384;28;20713;-76
2022/11/24 18:24:47;;;;;;;25.10;8.20;;;8.60;99.60;;;;;;21027815;28;20219;-76
2022/11/24 18:34:49;;;;;;;18.70;8.83;;;8.40;99.70;;;;;;21004957;28;20234;-73
2022/11/24 18:44:51;;;;;;;16.40;9.03;;;8.40;99.80;;;;;;21002219;28;20215;-74
2022/11/24 18:54:55;;;;;;;17.57;8.90;;;8.00;99.90;;;;;;21001470;28;20250;-77
2022/11/24 19:04:56;;;;;;;20.37;9.20;;;8.00;99.90;;;;;;21001747;28;20199;-77
2022/11/24 19:14:58;;;;;;;18.03;8.90;;;7.70;99.90;;;;;;21001055;28;20246;-77
2022/11/24 19:24:59;;;;;;;19.63;9.30;;;7.60;99.90;;;;;;20999317;28;20582;-74
2022/11/24 19:35:01;;;;;;;17.57;8.87;;;7.60;99.90;;;;;;20998802;28;20331;-72
2022/11/24 19:45:03;;;;;;;18.03;8.10;;;7.40;99.90;;;;;;20998630;28;20204;-72
2022/11/24 19:55:05;;;;;;;17.13;8.17;;;7.40;99.90;;;;;;21077492;28;20254;-71
2022/11/24 20:05:07;;;;;;;21.37;8.90;;;7.30;99.90;;;;;;21081480;28;20221;-73
2022/11/24 20:15:09;;;;;;;24.50;10.40;;;7.10;99.90;;;;;;21080683;28;20242;-72
2022/11/24 20:25:10;;;;;;;156.10;12.07;;;7.00;99.90;;;;;;21080470;28;20252;-72
2022/11/24 20:35:12;;;;;;;21.27;10.60;;;6.90;99.90;;;;;;21060134;28;20232;-71
2022/11/24 20:45:18;;;;;;;20.13;10.20;;;6.90;99.90;;;;;;21076039;28;20652;-71
2022/11/24 20:55:20;;;;;;;23.00;11.90;;;6.80;99.90;;;;;;21076435;28;20269;-73
2022/11/24 21:05:23;;;;;;;32.20;16.37;;;6.70;99.90;;;;;;21075636;28;20212;-71
2022/11/24 21:15:24;;;;;;;35.90;15.80;;;6.70;99.90;;;;;;21073904;28;20237;-73
2022/11/24 21:25:26;;;;;;;29.67;15.00;;;6.70;99.90;;;;;;21075264;28;20669;-72
2022/11/24 21:35:28;;;;;;;30.10;14.20;;;6.50;99.90;;;;;;21074650;28;20796;-72
2022/11/24 21:45:33;;;;;;;25.33;13.23;;;6.50;99.90;;;;;;21074147;28;20278;-72
2022/11/24 21:55:34;;;;;;;31.83;12.40;;;6.50;99.90;;;;;;21078140;28;20592;-72
2022/11/24 22:05:36;;;;;;;19.93;9.87;;;6.30;99.90;;;;;;21088719;28;20211;-72
2022/11/24 22:15:38;;;;;;;27.90;10.23;;;6.40;99.90;;;;;;21089521;28;20237;-71
2022/11/24 22:25:39;;;;;;;21.27;9.30;;;6.40;99.90;;;;;;21090030;28;20215;-72
2022/11/24 22:35:41;;;;;;;20.97;10.80;;;6.30;99.90;;;;;;21088855;28;20241;-72
2022/11/24 22:45:42;;;;;;;20.63;9.43;;;6.20;99.90;;;;;;21087641;28;20236;-73
2022/11/24 22:55:44;;;;;;;20.77;10.23;;;6.10;99.90;;;;;;21087239;28;20248;-73
2022/11/24 23:05:46;;;;;;;19.27;9.93;;;6.10;99.90;;;;;;21084409;28;20203;-75
2022/11/24 23:15:47;;;;;;;18.27;9.50;;;5.90;99.90;;;;;;21085504;28;20236;-75
2022/11/24 23:25:49;;;;;;;21.43;9.70;;;;;;;;;;21085246;28;20269;-75
2022/11/24 23:35:51;;;;;;;17.93;9.40;;;5.90;99.90;;;;;;21083808;28;20265;-76
2022/11/24 23:45:53;;;;;;;22.17;9.13;;;5.90;99.90;;;;;;21082834;28;20240;-76
2022/11/24 23:55:55;;;;;;;20.27;9.20;;;5.80;99.90;;;;;;21082786;28;20269;-76
